sensor_id;sensor_type;location;lat;lon;timestamp;temperature;humidity
53876;DHT22;39789;53.216;5.624;2023-08-12T00:01:10;18.40;99.90
53876;DHT22;39789;53.216;5.624;2023-08-12T00:03:36;19.00;99.90
53876;DHT22;39789;53.216;5.624;2023-08-12T00:06:02;18.30;99.90
53876;DHT22;39789;53.216;5.624;2023-08-12T00:08:31;18.30;99.90
53876;DHT22;39789;53.216;5.624;2023-08-12T00:10:56;18.90;99.90
53876;DHT22;39789;53.216;5.624;2023-08-12T00:13:22;19.10;99.90
53876;DHT22;39789;53.216;5.624;2023-08-12T00:15:48;18.40;99.90
53876;DHT22;39789;53.216;5.624;2023-08-12T00:18:13;18.90;99.90
53876;DHT22;39789;53.216;5.624;2023-08-12T00:20:39;18.40;99.90
53876;DHT22;39789;53.216;5.624;2023-08-12T00:23:05;19.40;99.90
53876;DHT22;39789;53.216;5.624;2023-08-12T00:25:34;19.00;99.90
53876;DHT22;39789;53.216;5.624;2023-08-12T00:28:00;19.40;99.90
53876;DHT22;39789;53.216;5.624;2023-08-12T00:30:25;18.80;99.90
53876;DHT22;39789;53.216;5.624;2023-08-12T00:32:51;19.30;99.90
53876;DHT22;39789;53.216;5.624;2023-08-12T00:35:16;18.90;99.90
53876;DHT22;39789;53.216;5.624;2023-08-12T00:37:42;18.90;99.90
53876;DHT22;39789;53.216;5.624;2023-08-12T00:40:08;18.40;99.90
53876;DHT22;39789;53.216;5.624;2023-08-12T00:42:34;18.40;99.90
53876;DHT22;39789;53.216;5.624;2023-08-12T00:45:00;18.40;99.90
53876;DHT22;39789;53.216;5.624;2023-08-12T00:47:28;18.30;99.90
53876;DHT22;39789;53.216;5.624;2023-08-12T00:49:54;18.30;99.90
53876;DHT22;39789;53.216;5.624;2023-08-12T00:52:22;18.70;99.90
53876;DHT22;39789;53.216;5.624;2023-08-12T00:54:48;18.30;99.90
53876;DHT22;39789;53.216;5.624;2023-08-12T00:57:14;18.20;99.90
53876;DHT22;39789;53.216;5.624;2023-08-12T00:59:41;18.60;99.90
53876;DHT22;39789;53.216;5.624;2023-08-12T01:02:08;19.10;99.90
53876;DHT22;39789;53.216;5.624;2023-08-12T01:04:34;18.20;99.90
53876;DHT22;39789;53.216;5.624;2023-08-12T01:07:00;18.50;99.90
53876;DHT22;39789;53.216;5.624;2023-08-12T01:09:25;18.90;99.90
53876;DHT22;39789;53.216;5.624;2023-08-12T01:12:05;18.20;99.90
53876;DHT22;39789;53.216;5.624;2023-08-12T01:17:17;18.20;99.90
53876;DHT22;39789;53.216;5.624;2023-08-12T01:19:43;18.10;99.90
53876;DHT22;39789;53.216;5.624;2023-08-12T01:22:11;18.30;99.90
53876;DHT22;39789;53.216;5.624;2023-08-12T01:24:38;18.20;99.90
53876;DHT22;39789;53.216;5.624;2023-08-12T01:27:05;18.20;99.90
53876;DHT22;39789;53.216;5.624;2023-08-12T01:29:36;18.20;99.90
53876;DHT22;39789;53.216;5.624;2023-08-12T01:32:21;18.10;99.90
53876;DHT22;39789;53.216;5.624;2023-08-12T01:35:26;18.10;99.90
53876;DHT22;39789;53.216;5.624;2023-08-12T01:37:53;18.10;99.90
53876;DHT22;39789;53.216;5.624;2023-08-12T01:40:20;18.40;99.90
53876;DHT22;39789;53.216;5.624;2023-08-12T01:42:46;18.10;99.90
53876;DHT22;39789;53.216;5.624;2023-08-12T01:45:12;18.80;99.90
53876;DHT22;39789;53.216;5.624;2023-08-12T01:47:38;18.20;99.90
53876;DHT22;39789;53.216;5.624;2023-08-12T01:50:04;18.20;99.90
53876;DHT22;39789;53.216;5.624;2023-08-12T01:52:30;18.20;99.90
53876;DHT22;39789;53.216;5.624;2023-08-12T01:54:55;18.30;99.90
53876;DHT22;39789;53.216;5.624;2023-08-12T01:57:21;18.30;99.90
53876;DHT22;39789;53.216;5.624;2023-08-12T01:59:47;18.40;99.90
53876;DHT22;39789;53.216;5.624;2023-08-12T02:02:12;18.30;99.90
53876;DHT22;39789;53.216;5.624;2023-08-12T02:04:40;18.40;99.90
53876;DHT22;39789;53.216;5.624;2023-08-12T02:07:06;18.40;99.90
53876;DHT22;39789;53.216;5.624;2023-08-12T02:09:31;18.40;99.90
53876;DHT22;39789;53.216;5.624;2023-08-12T02:11:57;18.50;99.90
53876;DHT22;39789;53.216;5.624;2023-08-12T02:14:23;18.50;99.90
53876;DHT22;39789;53.216;5.624;2023-08-12T02:16:49;18.50;99.90
53876;DHT22;39789;53.216;5.624;2023-08-12T02:19:15;19.20;99.90
53876;DHT22;39789;53.216;5.624;2023-08-12T02:21:41;18.50;99.90
53876;DHT22;39789;53.216;5.624;2023-08-12T02:24:07;18.50;99.90
53876;DHT22;39789;53.216;5.624;2023-08-12T02:26:33;18.50;99.90
53876;DHT22;39789;53.216;5.624;2023-08-12T02:28:59;18.50;99.90
53876;DHT22;39789;53.216;5.624;2023-08-12T02:31:25;18.50;99.90
53876;DHT22;39789;53.216;5.624;2023-08-12T02:33:50;18.50;99.90
53876;DHT22;39789;53.216;5.624;2023-08-12T02:36:16;19.10;99.90
53876;DHT22;39789;53.216;5.624;2023-08-12T02:38:42;19.50;99.90
53876;DHT22;39789;53.216;5.624;2023-08-12T02:41:08;18.50;99.90
53876;DHT22;39789;53.216;5.624;2023-08-12T02:43:34;18.10;99.90
53876;DHT22;39789;53.216;5.624;2023-08-12T02:45:59;19.40;99.90
53876;DHT22;39789;53.216;5.624;2023-08-12T02:48:25;19.30;99.90
53876;DHT22;39789;53.216;5.624;2023-08-12T02:50:50;19.40;99.90
53876;DHT22;39789;53.216;5.624;2023-08-12T02:53:16;19.20;99.90
53876;DHT22;39789;53.216;5.624;2023-08-12T02:55:42;18.90;99.90
53876;DHT22;39789;53.216;5.624;2023-08-12T02:58:08;18.70;99.90
53876;DHT22;39789;53.216;5.624;2023-08-12T03:00:33;19.40;99.90
53876;DHT22;39789;53.216;5.624;2023-08-12T03:02:59;18.60;99.90
53876;DHT22;39789;53.216;5.624;2023-08-12T03:05:24;19.40;99.90
53876;DHT22;39789;53.216;5.624;2023-08-12T03:07:50;18.80;99.90
53876;DHT22;39789;53.216;5.624;2023-08-12T03:10:17;18.90;99.90
53876;DHT22;39789;53.216;5.624;2023-08-12T03:12:43;19.00;99.90
53876;DHT22;39789;53.216;5.624;2023-08-12T03:15:10;19.00;99.90
53876;DHT22;39789;53.216;5.624;2023-08-12T03:17:35;18.60;99.90
53876;DHT22;39789;53.216;5.624;2023-08-12T03:20:01;18.80;99.90
53876;DHT22;39789;53.216;5.624;2023-08-12T03:22:30;18.60;99.90
53876;DHT22;39789;53.216;5.624;2023-08-12T03:24:56;18.60;99.90
53876;DHT22;39789;53.216;5.624;2023-08-12T03:27:21;18.70;99.90
53876;DHT22;39789;53.216;5.624;2023-08-12T03:29:47;18.60;99.90
53876;DHT22;39789;53.216;5.624;2023-08-12T03:32:13;18.60;99.90
53876;DHT22;39789;53.216;5.624;2023-08-12T03:34:38;18.80;99.90
53876;DHT22;39789;53.216;5.624;2023-08-12T03:37:04;18.70;99.90
53876;DHT22;39789;53.216;5.624;2023-08-12T03:39:30;19.40;99.90
53876;DHT22;39789;53.216;5.624;2023-08-12T03:41:56;18.70;99.90
53876;DHT22;39789;53.216;5.624;2023-08-12T03:44:21;18.60;99.90
53876;DHT22;39789;53.216;5.624;2023-08-12T03:46:47;18.60;99.90
53876;DHT22;39789;53.216;5.624;2023-08-12T03:49:12;18.60;99.90
53876;DHT22;39789;53.216;5.624;2023-08-12T03:51:38;18.60;99.90
53876;DHT22;39789;53.216;5.624;2023-08-12T03:54:04;18.60;99.90
53876;DHT22;39789;53.216;5.624;2023-08-12T03:56:30;18.60;99.90
53876;DHT22;39789;53.216;5.624;2023-08-12T03:58:55;18.60;99.90
53876;DHT22;39789;53.216;5.624;2023-08-12T04:01:21;18.60;99.90
53876;DHT22;39789;53.216;5.624;2023-08-12T04:03:47;18.60;99.90
53876;DHT22;39789;53.216;5.624;2023-08-12T04:06:12;18.60;99.90
53876;DHT22;39789;53.216;5.624;2023-08-12T04:08:38;18.60;99.90
53876;DHT22;39789;53.216;5.624;2023-08-12T04:11:04;18.70;99.90
53876;DHT22;39789;53.216;5.624;2023-08-12T04:13:29;18.60;99.90
53876;DHT22;39789;53.216;5.624;2023-08-12T04:15:55;18.60;99.90
53876;DHT22;39789;53.216;5.624;2023-08-12T04:18:21;18.80;99.90
53876;DHT22;39789;53.216;5.624;2023-08-12T04:20:52;19.50;99.90
53876;DHT22;39789;53.216;5.624;2023-08-12T04:23:19;18.70;99.90
53876;DHT22;39789;53.216;5.624;2023-08-12T04:25:46;19.50;99.90
53876;DHT22;39789;53.216;5.624;2023-08-12T04:28:13;19.20;99.90
53876;DHT22;39789;53.216;5.624;2023-08-12T04:30:43;19.50;99.90
53876;DHT22;39789;53.216;5.624;2023-08-12T04:33:08;19.40;99.90
53876;DHT22;39789;53.216;5.624;2023-08-12T04:35:34;19.50;99.90
53876;DHT22;39789;53.216;5.624;2023-08-12T04:38:00;19.00;99.90
53876;DHT22;39789;53.216;5.624;2023-08-12T04:40:25;18.80;99.90
53876;DHT22;39789;53.216;5.624;2023-08-12T04:42:51;18.90;99.90
53876;DHT22;39789;53.216;5.624;2023-08-12T04:45:17;19.00;99.90
53876;DHT22;39789;53.216;5.624;2023-08-12T04:47:42;19.20;99.90
53876;DHT22;39789;53.216;5.624;2023-08-12T04:50:08;19.40;99.90
53876;DHT22;39789;53.216;5.624;2023-08-12T04:52:34;18.90;99.90
53876;DHT22;39789;53.216;5.624;2023-08-12T04:55:00;19.00;99.90
53876;DHT22;39789;53.216;5.624;2023-08-12T04:57:25;18.90;99.90
53876;DHT22;39789;53.216;5.624;2023-08-12T04:59:51;19.80;99.90
53876;DHT22;39789;53.216;5.624;2023-08-12T05:02:17;19.60;99.90
53876;DHT22;39789;53.216;5.624;2023-08-12T05:04:49;19.10;99.90
53876;DHT22;39789;53.216;5.624;2023-08-12T05:07:15;19.10;99.90
53876;DHT22;39789;53.216;5.624;2023-08-12T05:09:41;19.90;99.90
53876;DHT22;39789;53.216;5.624;2023-08-12T05:12:09;19.50;99.90
53876;DHT22;39789;53.216;5.624;2023-08-12T05:14:36;19.90;99.90
53876;DHT22;39789;53.216;5.624;2023-08-12T05:17:02;19.90;99.90
53876;DHT22;39789;53.216;5.624;2023-08-12T05:19:27;20.00;99.90
53876;DHT22;39789;53.216;5.624;2023-08-12T05:21:53;19.20;99.90
53876;DHT22;39789;53.216;5.624;2023-08-12T05:24:19;20.10;99.90
53876;DHT22;39789;53.216;5.624;2023-08-12T05:26:44;19.20;99.90
53876;DHT22;39789;53.216;5.624;2023-08-12T05:29:10;19.80;99.90
53876;DHT22;39789;53.216;5.624;2023-08-12T05:31:36;19.20;99.90
53876;DHT22;39789;53.216;5.624;2023-08-12T05:34:05;19.30;99.90
53876;DHT22;39789;53.216;5.624;2023-08-12T05:36:30;19.30;99.90
53876;DHT22;39789;53.216;5.624;2023-08-12T05:38:56;20.20;99.90
53876;DHT22;39789;53.216;5.624;2023-08-12T05:41:22;19.30;99.90
53876;DHT22;39789;53.216;5.624;2023-08-12T05:43:48;19.40;99.90
53876;DHT22;39789;53.216;5.624;2023-08-12T05:46:14;20.10;99.90
53876;DHT22;39789;53.216;5.624;2023-08-12T05:48:40;20.00;99.90
53876;DHT22;39789;53.216;5.624;2023-08-12T05:51:05;20.30;99.90
53876;DHT22;39789;53.216;5.624;2023-08-12T05:53:31;20.00;99.90
53876;DHT22;39789;53.216;5.624;2023-08-12T05:55:57;19.30;99.90
53876;DHT22;39789;53.216;5.624;2023-08-12T05:58:23;19.40;99.90
53876;DHT22;39789;53.216;5.624;2023-08-12T06:00:48;19.60;99.90
53876;DHT22;39789;53.216;5.624;2023-08-12T06:03:14;20.10;99.90
53876;DHT22;39789;53.216;5.624;2023-08-12T06:05:42;20.10;99.90
53876;DHT22;39789;53.216;5.624;2023-08-12T06:08:08;19.60;99.90
53876;DHT22;39789;53.216;5.624;2023-08-12T06:10:33;20.00;99.90
53876;DHT22;39789;53.216;5.624;2023-08-12T06:13:00;19.90;99.90
53876;DHT22;39789;53.216;5.624;2023-08-12T06:15:25;20.30;99.90
53876;DHT22;39789;53.216;5.624;2023-08-12T06:17:51;20.60;99.90
53876;DHT22;39789;53.216;5.624;2023-08-12T06:20:17;19.60;99.90
53876;DHT22;39789;53.216;5.624;2023-08-12T06:22:42;19.60;99.90
53876;DHT22;39789;53.216;5.624;2023-08-12T06:25:08;20.40;99.90
53876;DHT22;39789;53.216;5.624;2023-08-12T06:27:34;19.80;99.90
53876;DHT22;39789;53.216;5.624;2023-08-12T06:29:59;19.60;99.90
53876;DHT22;39789;53.216;5.624;2023-08-12T06:32:25;19.60;99.90
53876;DHT22;39789;53.216;5.624;2023-08-12T06:34:50;19.80;99.90
53876;DHT22;39789;53.216;5.624;2023-08-12T06:37:16;20.40;99.90
53876;DHT22;39789;53.216;5.624;2023-08-12T06:39:42;19.90;99.90
53876;DHT22;39789;53.216;5.624;2023-08-12T06:42:08;20.70;99.90
53876;DHT22;39789;53.216;5.624;2023-08-12T06:44:33;20.00;99.90
53876;DHT22;39789;53.216;5.624;2023-08-12T06:46:59;20.00;99.90
53876;DHT22;39789;53.216;5.624;2023-08-12T06:49:24;20.70;99.90
53876;DHT22;39789;53.216;5.624;2023-08-12T06:51:50;19.70;99.90
53876;DHT22;39789;53.216;5.624;2023-08-12T06:54:15;20.70;99.90
53876;DHT22;39789;53.216;5.624;2023-08-12T06:56:41;20.50;99.90
53876;DHT22;39789;53.216;5.624;2023-08-12T06:59:07;20.10;99.90
53876;DHT22;39789;53.216;5.624;2023-08-12T07:01:33;19.80;99.90
53876;DHT22;39789;53.216;5.624;2023-08-12T07:04:01;20.00;99.90
53876;DHT22;39789;53.216;5.624;2023-08-12T07:06:27;20.00;99.90
53876;DHT22;39789;53.216;5.624;2023-08-12T07:08:52;20.90;99.90
53876;DHT22;39789;53.216;5.624;2023-08-12T07:11:18;20.00;99.90
53876;DHT22;39789;53.216;5.624;2023-08-12T07:13:43;20.60;99.90
53876;DHT22;39789;53.216;5.624;2023-08-12T07:16:14;20.90;99.90
53876;DHT22;39789;53.216;5.624;2023-08-12T07:18:40;20.00;99.90
53876;DHT22;39789;53.216;5.624;2023-08-12T07:21:05;20.70;99.90
53876;DHT22;39789;53.216;5.624;2023-08-12T07:23:33;20.80;99.90
53876;DHT22;39789;53.216;5.624;2023-08-12T07:25:59;20.00;99.90
53876;DHT22;39789;53.216;5.624;2023-08-12T07:28:25;20.00;99.90
53876;DHT22;39789;53.216;5.624;2023-08-12T07:30:50;20.00;99.90
53876;DHT22;39789;53.216;5.624;2023-08-12T07:33:17;20.10;99.90
53876;DHT22;39789;53.216;5.624;2023-08-12T07:35:43;20.50;99.90
53876;DHT22;39789;53.216;5.624;2023-08-12T07:38:09;20.70;99.90
53876;DHT22;39789;53.216;5.624;2023-08-12T07:40:34;20.70;99.90
53876;DHT22;39789;53.216;5.624;2023-08-12T07:43:00;20.90;99.90
53876;DHT22;39789;53.216;5.624;2023-08-12T07:45:26;20.70;99.90
53876;DHT22;39789;53.216;5.624;2023-08-12T07:47:51;19.90;99.90
53876;DHT22;39789;53.216;5.624;2023-08-12T07:50:17;20.60;99.90
53876;DHT22;39789;53.216;5.624;2023-08-12T07:52:43;19.90;99.90
53876;DHT22;39789;53.216;5.624;2023-08-12T07:55:09;20.00;99.90
53876;DHT22;39789;53.216;5.624;2023-08-12T07:57:34;19.90;99.90
53876;DHT22;39789;53.216;5.624;2023-08-12T08:00:00;19.90;99.90
53876;DHT22;39789;53.216;5.624;2023-08-12T08:02:26;20.10;99.90
53876;DHT22;39789;53.216;5.624;2023-08-12T08:04:51;20.50;99.90
53876;DHT22;39789;53.216;5.624;2023-08-12T08:07:17;20.00;99.90
53876;DHT22;39789;53.216;5.624;2023-08-12T08:09:44;20.80;99.90
53876;DHT22;39789;53.216;5.624;2023-08-12T08:12:10;20.00;99.90
53876;DHT22;39789;53.216;5.624;2023-08-12T08:14:36;20.50;99.90
53876;DHT22;39789;53.216;5.624;2023-08-12T08:17:02;20.10;99.90
53876;DHT22;39789;53.216;5.624;2023-08-12T08:19:28;20.00;99.90
53876;DHT22;39789;53.216;5.624;2023-08-12T08:21:54;20.50;99.90
53876;DHT22;39789;53.216;5.624;2023-08-12T08:24:20;19.90;99.90
53876;DHT22;39789;53.216;5.624;2023-08-12T08:26:45;20.70;99.90
53876;DHT22;39789;53.216;5.624;2023-08-12T08:29:12;20.60;99.90
53876;DHT22;39789;53.216;5.624;2023-08-12T08:31:38;20.10;99.90
53876;DHT22;39789;53.216;5.624;2023-08-12T08:34:05;20.50;99.90
53876;DHT22;39789;53.216;5.624;2023-08-12T08:36:31;20.70;99.90
53876;DHT22;39789;53.216;5.624;2023-08-12T08:38:57;20.50;99.90
53876;DHT22;39789;53.216;5.624;2023-08-12T08:41:24;20.10;99.90
53876;DHT22;39789;53.216;5.624;2023-08-12T08:43:50;20.70;99.90
53876;DHT22;39789;53.216;5.624;2023-08-12T08:46:18;20.10;99.90
53876;DHT22;39789;53.216;5.624;2023-08-12T08:48:44;20.70;99.90
53876;DHT22;39789;53.216;5.624;2023-08-12T08:51:11;20.10;99.90
53876;DHT22;39789;53.216;5.624;2023-08-12T08:53:41;20.70;99.90
53876;DHT22;39789;53.216;5.624;2023-08-12T08:56:07;20.60;99.90
53876;DHT22;39789;53.216;5.624;2023-08-12T08:58:33;20.60;99.90
53876;DHT22;39789;53.216;5.624;2023-08-12T09:00:59;20.80;99.90
53876;DHT22;39789;53.216;5.624;2023-08-12T09:03:26;20.20;99.90
53876;DHT22;39789;53.216;5.624;2023-08-12T09:05:55;20.00;99.90
53876;DHT22;39789;53.216;5.624;2023-08-12T09:08:22;20.70;99.90
53876;DHT22;39789;53.216;5.624;2023-08-12T09:10:48;20.90;99.90
53876;DHT22;39789;53.216;5.624;2023-08-12T09:13:15;20.50;99.90
53876;DHT22;39789;53.216;5.624;2023-08-12T09:15:43;19.50;99.90
53876;DHT22;39789;53.216;5.624;2023-08-12T09:18:09;19.50;99.90
53876;DHT22;39789;53.216;5.624;2023-08-12T09:20:35;19.90;99.90
53876;DHT22;39789;53.216;5.624;2023-08-12T09:23:01;20.10;99.90
53876;DHT22;39789;53.216;5.624;2023-08-12T09:25:28;20.10;99.90
53876;DHT22;39789;53.216;5.624;2023-08-12T09:28:00;20.30;99.90
53876;DHT22;39789;53.216;5.624;2023-08-12T09:30:28;19.20;99.90
53876;DHT22;39789;53.216;5.624;2023-08-12T09:33:03;19.30;99.90
53876;DHT22;39789;53.216;5.624;2023-08-12T09:35:40;19.10;99.90
53876;DHT22;39789;53.216;5.624;2023-08-12T09:38:12;19.00;99.90
53876;DHT22;39789;53.216;5.624;2023-08-12T09:40:39;19.00;99.90
53876;DHT22;39789;53.216;5.624;2023-08-12T09:43:08;18.90;99.90
53876;DHT22;39789;53.216;5.624;2023-08-12T09:45:34;18.90;99.90
53876;DHT22;39789;53.216;5.624;2023-08-12T09:48:01;19.00;99.90
53876;DHT22;39789;53.216;5.624;2023-08-12T09:50:27;19.00;99.90
53876;DHT22;39789;53.216;5.624;2023-08-12T09:52:54;19.00;99.90
53876;DHT22;39789;53.216;5.624;2023-08-12T09:55:23;19.20;99.90
53876;DHT22;39789;53.216;5.624;2023-08-12T09:57:51;19.70;99.90
53876;DHT22;39789;53.216;5.624;2023-08-12T10:00:18;19.00;99.90
53876;DHT22;39789;53.216;5.624;2023-08-12T10:02:46;19.10;99.90
53876;DHT22;39789;53.216;5.624;2023-08-12T10:05:19;18.50;99.90
53876;DHT22;39789;53.216;5.624;2023-08-12T10:07:46;18.70;99.90
53876;DHT22;39789;53.216;5.624;2023-08-12T10:10:12;18.90;99.90
53876;DHT22;39789;53.216;5.624;2023-08-12T10:12:39;19.60;99.90
53876;DHT22;39789;53.216;5.624;2023-08-12T10:15:05;19.00;99.90
53876;DHT22;39789;53.216;5.624;2023-08-12T10:17:33;18.80;99.90
53876;DHT22;39789;53.216;5.624;2023-08-12T10:20:01;18.90;99.90
53876;DHT22;39789;53.216;5.624;2023-08-12T10:22:30;19.30;99.90
53876;DHT22;39789;53.216;5.624;2023-08-12T10:24:58;19.00;99.90
53876;DHT22;39789;53.216;5.624;2023-08-12T10:27:25;19.00;99.90
53876;DHT22;39789;53.216;5.624;2023-08-12T10:29:51;19.00;99.90
53876;DHT22;39789;53.216;5.624;2023-08-12T10:32:17;19.10;99.90
53876;DHT22;39789;53.216;5.624;2023-08-12T10:34:43;19.10;99.90
53876;DHT22;39789;53.216;5.624;2023-08-12T10:37:10;19.10;99.90
53876;DHT22;39789;53.216;5.624;2023-08-12T10:39:36;19.20;99.90
53876;DHT22;39789;53.216;5.624;2023-08-12T10:42:02;19.20;99.90
53876;DHT22;39789;53.216;5.624;2023-08-12T10:44:50;19.30;99.90
53876;DHT22;39789;53.216;5.624;2023-08-12T10:47:17;19.40;99.90
53876;DHT22;39789;53.216;5.624;2023-08-12T10:49:44;19.40;99.90
53876;DHT22;39789;53.216;5.624;2023-08-12T10:52:33;19.30;99.90
53876;DHT22;39789;53.216;5.624;2023-08-12T10:55:19;19.30;99.90
53876;DHT22;39789;53.216;5.624;2023-08-12T10:57:45;19.20;99.90
53876;DHT22;39789;53.216;5.624;2023-08-12T11:00:13;19.10;99.90
53876;DHT22;39789;53.216;5.624;2023-08-12T11:02:39;19.00;99.90
53876;DHT22;39789;53.216;5.624;2023-08-12T11:05:10;18.80;99.90
53876;DHT22;39789;53.216;5.624;2023-08-12T11:07:47;19.30;99.90
53876;DHT22;39789;53.216;5.624;2023-08-12T11:10:18;18.70;99.90
53876;DHT22;39789;53.216;5.624;2023-08-12T11:12:54;19.00;99.90
53876;DHT22;39789;53.216;5.624;2023-08-12T11:15:34;19.00;99.90
53876;DHT22;39789;53.216;5.624;2023-08-12T11:18:05;19.30;99.90
53876;DHT22;39789;53.216;5.624;2023-08-12T11:20:31;19.00;99.90
53876;DHT22;39789;53.216;5.624;2023-08-12T11:22:58;19.00;99.90
53876;DHT22;39789;53.216;5.624;2023-08-12T11:25:24;19.00;99.90
53876;DHT22;39789;53.216;5.624;2023-08-12T11:27:50;19.10;99.90
53876;DHT22;39789;53.216;5.624;2023-08-12T11:30:17;19.30;99.90
53876;DHT22;39789;53.216;5.624;2023-08-12T11:32:47;19.60;99.90
53876;DHT22;39789;53.216;5.624;2023-08-12T11:35:14;19.40;99.90
53876;DHT22;39789;53.216;5.624;2023-08-12T11:37:42;19.60;99.90
53876;DHT22;39789;53.216;5.624;2023-08-12T11:40:10;19.70;99.90
53876;DHT22;39789;53.216;5.624;2023-08-12T11:42:40;19.90;99.90
53876;DHT22;39789;53.216;5.624;2023-08-12T11:45:06;20.50;99.90
53876;DHT22;39789;53.216;5.624;2023-08-12T11:47:36;20.40;99.90
53876;DHT22;39789;53.216;5.624;2023-08-12T11:50:06;20.70;99.90
53876;DHT22;39789;53.216;5.624;2023-08-12T11:52:32;20.80;99.90
53876;DHT22;39789;53.216;5.624;2023-08-12T11:54:58;21.10;99.90
53876;DHT22;39789;53.216;5.624;2023-08-12T11:57:25;21.00;99.90
53876;DHT22;39789;53.216;5.624;2023-08-12T11:59:51;21.10;99.90
53876;DHT22;39789;53.216;5.624;2023-08-12T12:02:17;21.50;99.90
53876;DHT22;39789;53.216;5.624;2023-08-12T12:04:43;21.30;99.90
53876;DHT22;39789;53.216;5.624;2023-08-12T12:07:19;21.70;99.90
53876;DHT22;39789;53.216;5.624;2023-08-12T12:09:45;21.30;99.90
53876;DHT22;39789;53.216;5.624;2023-08-12T12:12:10;22.00;99.90
53876;DHT22;39789;53.216;5.624;2023-08-12T12:14:36;21.70;99.90
53876;DHT22;39789;53.216;5.624;2023-08-12T12:17:07;21.70;99.90
53876;DHT22;39789;53.216;5.624;2023-08-12T12:19:33;21.80;99.90
53876;DHT22;39789;53.216;5.624;2023-08-12T12:22:03;22.40;99.90
53876;DHT22;39789;53.216;5.624;2023-08-12T12:24:30;22.00;99.90
53876;DHT22;39789;53.216;5.624;2023-08-12T12:26:56;22.10;99.90
53876;DHT22;39789;53.216;5.624;2023-08-12T12:29:22;22.10;99.90
53876;DHT22;39789;53.216;5.624;2023-08-12T12:31:48;22.20;99.90
53876;DHT22;39789;53.216;5.624;2023-08-12T12:34:14;22.20;99.90
53876;DHT22;39789;53.216;5.624;2023-08-12T12:36:40;22.40;99.90
53876;DHT22;39789;53.216;5.624;2023-08-12T12:39:06;22.20;99.70
53876;DHT22;39789;53.216;5.624;2023-08-12T12:41:32;22.60;99.80
53876;DHT22;39789;53.216;5.624;2023-08-12T12:44:00;22.20;99.40
53876;DHT22;39789;53.216;5.624;2023-08-12T12:46:26;22.70;99.50
53876;DHT22;39789;53.216;5.624;2023-08-12T12:48:52;22.80;99.00
53876;DHT22;39789;53.216;5.624;2023-08-12T12:51:17;22.30;98.40
53876;DHT22;39789;53.216;5.624;2023-08-12T12:53:43;22.80;98.20
53876;DHT22;39789;53.216;5.624;2023-08-12T12:56:08;22.90;97.90
53876;DHT22;39789;53.216;5.624;2023-08-12T12:58:35;22.50;96.90
53876;DHT22;39789;53.216;5.624;2023-08-12T13:01:02;22.80;96.50
53876;DHT22;39789;53.216;5.624;2023-08-12T13:03:28;22.70;96.30
53876;DHT22;39789;53.216;5.624;2023-08-12T13:05:54;22.30;96.00
53876;DHT22;39789;53.216;5.624;2023-08-12T13:08:20;22.40;96.20
53876;DHT22;39789;53.216;5.624;2023-08-12T13:10:46;22.60;95.90
53876;DHT22;39789;53.216;5.624;2023-08-12T13:13:14;23.00;95.50
53876;DHT22;39789;53.216;5.624;2023-08-12T13:15:41;22.80;94.80
53876;DHT22;39789;53.216;5.624;2023-08-12T13:18:07;23.10;94.70
53876;DHT22;39789;53.216;5.624;2023-08-12T13:20:37;22.80;94.40
53876;DHT22;39789;53.216;5.624;2023-08-12T13:23:03;23.10;93.50
53876;DHT22;39789;53.216;5.624;2023-08-12T13:25:31;22.60;92.90
53876;DHT22;39789;53.216;5.624;2023-08-12T13:28:01;22.60;93.00
53876;DHT22;39789;53.216;5.624;2023-08-12T13:30:28;23.10;93.10
53876;DHT22;39789;53.216;5.624;2023-08-12T13:32:54;23.00;92.50
53876;DHT22;39789;53.216;5.624;2023-08-12T13:35:20;23.10;91.60
53876;DHT22;39789;53.216;5.624;2023-08-12T13:37:46;22.70;91.30
53876;DHT22;39789;53.216;5.624;2023-08-12T13:40:11;22.50;90.60
53876;DHT22;39789;53.216;5.624;2023-08-12T13:42:37;23.00;90.80
53876;DHT22;39789;53.216;5.624;2023-08-12T13:45:04;23.40;91.00
53876;DHT22;39789;53.216;5.624;2023-08-12T13:47:30;22.80;90.60
53876;DHT22;39789;53.216;5.624;2023-08-12T13:49:56;22.80;90.40
53876;DHT22;39789;53.216;5.624;2023-08-12T13:52:21;22.80;90.40
53876;DHT22;39789;53.216;5.624;2023-08-12T13:54:47;22.90;90.30
53876;DHT22;39789;53.216;5.624;2023-08-12T13:57:13;23.00;90.00
53876;DHT22;39789;53.216;5.624;2023-08-12T13:59:38;22.80;88.80
53876;DHT22;39789;53.216;5.624;2023-08-12T14:02:06;22.90;88.00
53876;DHT22;39789;53.216;5.624;2023-08-12T14:04:32;23.10;87.50
53876;DHT22;39789;53.216;5.624;2023-08-12T14:06:57;22.90;85.80
53876;DHT22;39789;53.216;5.624;2023-08-12T14:09:23;22.70;84.70
53876;DHT22;39789;53.216;5.624;2023-08-12T14:11:48;22.80;85.40
53876;DHT22;39789;53.216;5.624;2023-08-12T14:14:14;23.00;85.60
53876;DHT22;39789;53.216;5.624;2023-08-12T14:16:40;22.90;84.90
53876;DHT22;39789;53.216;5.624;2023-08-12T14:19:05;22.80;83.70
53876;DHT22;39789;53.216;5.624;2023-08-12T14:21:31;22.80;83.30
53876;DHT22;39789;53.216;5.624;2023-08-12T14:23:57;22.70;82.90
53876;DHT22;39789;53.216;5.624;2023-08-12T14:26:22;22.70;82.60
53876;DHT22;39789;53.216;5.624;2023-08-12T14:28:48;22.70;82.50
53876;DHT22;39789;53.216;5.624;2023-08-12T14:31:13;22.80;82.30
53876;DHT22;39789;53.216;5.624;2023-08-12T14:33:39;22.80;82.70
53876;DHT22;39789;53.216;5.624;2023-08-12T14:36:05;22.70;82.40
53876;DHT22;39789;53.216;5.624;2023-08-12T14:38:31;22.60;82.00
53876;DHT22;39789;53.216;5.624;2023-08-12T14:40:58;22.60;82.40
53876;DHT22;39789;53.216;5.624;2023-08-12T14:43:24;22.50;84.40
53876;DHT22;39789;53.216;5.624;2023-08-12T14:45:49;23.10;85.80
53876;DHT22;39789;53.216;5.624;2023-08-12T14:48:15;22.80;86.20
53876;DHT22;39789;53.216;5.624;2023-08-12T14:50:42;22.70;86.80
53876;DHT22;39789;53.216;5.624;2023-08-12T14:53:08;22.70;86.50
53876;DHT22;39789;53.216;5.624;2023-08-12T14:55:33;22.80;86.70
53876;DHT22;39789;53.216;5.624;2023-08-12T14:57:59;23.20;87.60
53876;DHT22;39789;53.216;5.624;2023-08-12T15:00:24;22.60;87.40
53876;DHT22;39789;53.216;5.624;2023-08-12T15:02:50;23.20;87.10
53876;DHT22;39789;53.216;5.624;2023-08-12T15:05:17;22.70;87.10
53876;DHT22;39789;53.216;5.624;2023-08-12T15:07:43;23.10;87.80
53876;DHT22;39789;53.216;5.624;2023-08-12T15:10:09;23.00;88.40
53876;DHT22;39789;53.216;5.624;2023-08-12T15:12:35;22.40;88.20
53876;DHT22;39789;53.216;5.624;2023-08-12T15:15:00;22.80;88.50
53876;DHT22;39789;53.216;5.624;2023-08-12T15:17:26;22.90;88.50
53876;DHT22;39789;53.216;5.624;2023-08-12T15:19:52;22.30;88.00
53876;DHT22;39789;53.216;5.624;2023-08-12T15:22:17;22.60;88.90
53876;DHT22;39789;53.216;5.624;2023-08-12T15:24:43;22.60;88.90
53876;DHT22;39789;53.216;5.624;2023-08-12T15:27:09;22.70;88.30
53876;DHT22;39789;53.216;5.624;2023-08-12T15:29:35;22.30;87.70